N216TB TNCS-TIST
Flight info
| Callsign | N216TB |
|---|---|
| Flight time | N/A |
| Altitude | 8000 |
| Route | DCT LARPP DCT NOMUE DCT KUTHO DCT JAQYY DCT |
| Aircraft | K100/L-L/C |
Departure
| Time | 2026-04-27 15:49 |
|---|---|
| Airport | Juancho E. Yrausquin Airport (TNCS) |
Arrival
| Time | N/A |
|---|---|
| Airport | Cyril E. King Airport (TIST) |
| Time | Latitude | Longitude | Altitude | Speed | Heading |
|---|---|---|---|---|---|
| 2026-04-27 15:36 | 17.64461 | -63.22049 | 133 ft | 0 kts | 205° |
| 2026-04-27 15:42 | 17.64464 | -63.22047 | 131 ft | 0 kts | 223° |
| 2026-04-27 15:42 | 17.64463 | -63.22049 | 131 ft | 1 kts | 217° |
| 2026-04-27 15:42 | 17.64467 | -63.22046 | 131 ft | 0 kts | 223° |
| 2026-04-27 15:44 | 17.64471 | -63.22041 | 131 ft | 2 kts | 227° |
| 2026-04-27 15:44 | 17.64480 | -63.22031 | 132 ft | 2 kts | 227° |
| 2026-04-27 15:45 | 17.64484 | -63.22027 | 132 ft | 1 kts | 226° |
| 2026-04-27 15:45 | 17.64483 | -63.22027 | 132 ft | 0 kts | 225° |
| 2026-04-27 15:45 | 17.64483 | -63.22028 | 132 ft | 0 kts | 225° |
| 2026-04-27 15:46 | 17.64489 | -63.22033 | 133 ft | 5 kts | 0° |
| 2026-04-27 15:46 | 17.64527 | -63.22036 | 134 ft | 0 kts | 324° |
| 2026-04-27 15:47 | 17.64543 | -63.22070 | 136 ft | 6 kts | 260° |
| 2026-04-27 15:47 | 17.64563 | -63.22127 | 141 ft | 12 kts | 295° |
| 2026-04-27 15:47 | 17.64605 | -63.22191 | 146 ft | 10 kts | 307° |
| 2026-04-27 15:48 | 17.64600 | -63.22218 | 146 ft | 3 kts | 107° |
| 2026-04-27 15:48 | 17.64600 | -63.22217 | 146 ft | 0 kts | 109° |
| 2026-04-27 15:49 | 17.64594 | -63.22198 | 146 ft | 22 kts | 111° |
| 2026-04-27 15:49 | 17.64440 | -63.21796 | 209 ft | 86 kts | 114° |
| 2026-04-27 15:49 | 17.64193 | -63.21112 | 435 ft | 105 kts | 107° |
| 2026-04-27 15:49 | 17.64006 | -63.20359 | 845 ft | 112 kts | 101° |
| 2026-04-27 15:50 | 17.64316 | -63.19616 | 1263 ft | 122 kts | 41° |
| 2026-04-27 15:50 | 17.65039 | -63.19126 | 1699 ft | 128 kts | 27° |
| 2026-04-27 15:50 | 17.65934 | -63.19233 | 2125 ft | 141 kts | 327° |
| 2026-04-27 15:50 | 17.66416 | -63.20109 | 2572 ft | 140 kts | 284° |
| 2026-04-27 15:51 | 17.66710 | -63.21083 | 3013 ft | 140 kts | 287° |
| 2026-04-27 15:51 | 17.66972 | -63.22064 | 3448 ft | 139 kts | 281° |
| 2026-04-27 15:51 | 17.67102 | -63.22713 | 3729 ft | 137 kts | 279° |
| 2026-04-27 15:51 | 17.67359 | -63.24005 | 4309 ft | 135 kts | 282° |
| 2026-04-27 15:52 | 17.67548 | -63.24963 | 4745 ft | 134 kts | 279° |
| 2026-04-27 15:52 | 17.67567 | -63.25919 | 5170 ft | 130 kts | 265° |
| 2026-04-27 15:52 | 17.67685 | -63.26854 | 5605 ft | 130 kts | 292° |
| 2026-04-27 15:52 | 17.68138 | -63.27674 | 6048 ft | 130 kts | 301° |
| 2026-04-27 15:53 | 17.68454 | -63.28203 | 6338 ft | 129 kts | 301° |
| 2026-04-27 15:53 | 17.68938 | -63.28994 | 6759 ft | 128 kts | 302° |
| 2026-04-27 15:53 | 17.69588 | -63.30028 | 7309 ft | 128 kts | 303° |
| 2026-04-27 15:53 | 17.70078 | -63.30804 | 7734 ft | 128 kts | 302° |
| 2026-04-27 15:54 | 17.70588 | -63.31605 | 7992 ft | 143 kts | 303° |
| 2026-04-27 15:54 | 17.71195 | -63.32539 | 8003 ft | 164 kts | 303° |
| 2026-04-27 15:54 | 17.71842 | -63.33567 | 8009 ft | 173 kts | 302° |
| 2026-04-27 15:54 | 17.72285 | -63.34274 | 8008 ft | 176 kts | 302° |
| 2026-04-27 15:55 | 17.72968 | -63.35357 | 8008 ft | 179 kts | 302° |
| 2026-04-27 15:55 | 17.73659 | -63.36450 | 8005 ft | 180 kts | 302° |
| 2026-04-27 15:55 | 17.74579 | -63.37901 | 8004 ft | 181 kts | 302° |
| 2026-04-27 15:55 | 17.75275 | -63.39003 | 8006 ft | 181 kts | 302° |
| 2026-04-27 15:56 | 17.75972 | -63.40106 | 8005 ft | 182 kts | 302° |
| 2026-04-27 15:56 | 17.76672 | -63.41211 | 8003 ft | 182 kts | 302° |
| 2026-04-27 15:56 | 17.77369 | -63.42313 | 8003 ft | 181 kts | 302° |
| 2026-04-27 15:56 | 17.77832 | -63.43044 | 8003 ft | 181 kts | 302° |
| 2026-04-27 15:57 | 17.78531 | -63.44146 | 8004 ft | 181 kts | 302° |
| 2026-04-27 15:57 | 17.79228 | -63.45249 | 8006 ft | 181 kts | 302° |
| 2026-04-27 15:57 | 17.79925 | -63.46353 | 8009 ft | 181 kts | 302° |
| 2026-04-27 15:57 | 17.80848 | -63.47814 | 8004 ft | 181 kts | 302° |
| 2026-04-27 15:58 | 17.81545 | -63.48916 | 8006 ft | 181 kts | 302° |
| 2026-04-27 15:58 | 17.82240 | -63.50016 | 8005 ft | 181 kts | 302° |
| 2026-04-27 15:58 | 17.82701 | -63.50745 | 8006 ft | 181 kts | 302° |
| 2026-04-27 15:58 | 17.83397 | -63.51846 | 8007 ft | 181 kts | 302° |
| 2026-04-27 15:59 | 17.84095 | -63.52950 | 8006 ft | 182 kts | 302° |
| 2026-04-27 15:59 | 17.84793 | -63.54057 | 8005 ft | 182 kts | 302° |
| 2026-04-27 15:59 | 17.85492 | -63.55164 | 8004 ft | 182 kts | 302° |
| 2026-04-27 15:59 | 17.86420 | -63.56632 | 8008 ft | 182 kts | 302° |
| 2026-04-27 16:00 | 17.86891 | -63.57379 | 8007 ft | 182 kts | 302° |
| 2026-04-27 16:00 | 17.87590 | -63.58486 | 8010 ft | 182 kts | 302° |
| 2026-04-27 16:00 | 17.88277 | -63.59575 | 8010 ft | 182 kts | 302° |
| 2026-04-27 16:00 | 17.88974 | -63.60681 | 8007 ft | 182 kts | 302° |
| 2026-04-27 16:01 | 17.89673 | -63.61786 | 8012 ft | 182 kts | 302° |
| 2026-04-27 16:01 | 17.90370 | -63.62891 | 8005 ft | 182 kts | 302° |
| 2026-04-27 16:01 | 17.91066 | -63.63996 | 8004 ft | 181 kts | 302° |
| 2026-04-27 16:01 | 17.91988 | -63.65457 | 8006 ft | 181 kts | 302° |
| 2026-04-27 16:02 | 17.92459 | -63.66204 | 8006 ft | 181 kts | 302° |
| 2026-04-27 16:02 | 17.93156 | -63.67310 | 8006 ft | 181 kts | 302° |
| 2026-04-27 16:02 | 17.93851 | -63.68415 | 8007 ft | 181 kts | 302° |
| 2026-04-27 16:02 | 17.94537 | -63.69504 | 8005 ft | 181 kts | 302° |
| 2026-04-27 16:03 | 17.95233 | -63.70607 | 8005 ft | 181 kts | 302° |
| 2026-04-27 16:03 | 17.95928 | -63.71710 | 8001 ft | 181 kts | 302° |
| 2026-04-27 16:03 | 17.96622 | -63.72813 | 8002 ft | 181 kts | 302° |
| 2026-04-27 16:03 | 17.97318 | -63.73916 | 8005 ft | 181 kts | 302° |
| 2026-04-27 16:04 | 17.98013 | -63.75019 | 8002 ft | 182 kts | 302° |
| 2026-04-27 16:04 | 17.98709 | -63.76127 | 8006 ft | 182 kts | 302° |
| 2026-04-27 16:04 | 17.99407 | -63.77237 | 8006 ft | 182 kts | 302° |
| 2026-04-27 16:04 | 18.00096 | -63.78331 | 8004 ft | 182 kts | 302° |
| 2026-04-27 16:05 | 18.00796 | -63.79443 | 8004 ft | 182 kts | 302° |
| 2026-04-27 16:05 | 18.01491 | -63.80550 | 8002 ft | 181 kts | 302° |
| 2026-04-27 16:05 | 18.02187 | -63.81653 | 7999 ft | 181 kts | 302° |
| 2026-04-27 16:05 | 18.02882 | -63.82758 | 8004 ft | 181 kts | 302° |
| 2026-04-27 16:06 | 18.03578 | -63.83867 | 8002 ft | 182 kts | 302° |
| 2026-04-27 16:06 | 18.04274 | -63.84975 | 8001 ft | 182 kts | 302° |
| 2026-04-27 16:06 | 18.04972 | -63.86083 | 8005 ft | 182 kts | 302° |
| 2026-04-27 16:06 | 18.05661 | -63.87180 | 8005 ft | 182 kts | 301° |
| 2026-04-27 16:07 | 18.06359 | -63.88291 | 8004 ft | 182 kts | 302° |
| 2026-04-27 16:07 | 18.07058 | -63.89404 | 8005 ft | 182 kts | 301° |
| 2026-04-27 16:07 | 18.07757 | -63.90515 | 8006 ft | 183 kts | 302° |
| 2026-04-27 16:07 | 18.08457 | -63.91630 | 8009 ft | 183 kts | 301° |
| 2026-04-27 16:08 | 18.09157 | -63.92746 | 8006 ft | 183 kts | 301° |
| 2026-04-27 16:08 | 18.09858 | -63.93863 | 8009 ft | 183 kts | 302° |
| 2026-04-27 16:08 | 18.10561 | -63.94980 | 8007 ft | 183 kts | 302° |
| 2026-04-27 16:08 | 18.11261 | -63.96097 | 8006 ft | 183 kts | 301° |
| 2026-04-27 16:09 | 18.11951 | -63.97199 | 8008 ft | 183 kts | 301° |
| 2026-04-27 16:09 | 18.13352 | -63.99429 | 8005 ft | 183 kts | 301° |
| 2026-04-27 16:09 | 18.14052 | -64.00546 | 8004 ft | 183 kts | 301° |
| 2026-04-27 16:10 | 18.15450 | -64.02775 | 8004 ft | 182 kts | 301° |
| 2026-04-27 16:10 | 18.16847 | -64.05005 | 8005 ft | 183 kts | 301° |
| 2026-04-27 16:11 | 18.17538 | -64.06106 | 8006 ft | 183 kts | 301° |
| 2026-04-27 16:11 | 18.18933 | -64.08334 | 8006 ft | 182 kts | 301° |
| 2026-04-27 16:12 | 18.20303 | -64.10576 | 8003 ft | 181 kts | 293° |
| 2026-04-27 16:12 | 18.20586 | -64.11843 | 8009 ft | 178 kts | 271° |
| 2026-04-27 16:12 | 18.20727 | -64.14444 | 8011 ft | 178 kts | 271° |
| 2026-04-27 16:13 | 18.20803 | -64.15728 | 8003 ft | 178 kts | 271° |
| 2026-04-27 16:13 | 18.20948 | -64.18331 | 8005 ft | 178 kts | 271° |
| 2026-04-27 16:13 | 18.21021 | -64.19634 | 8001 ft | 178 kts | 271° |
| 2026-04-27 16:14 | 18.21168 | -64.22240 | 8002 ft | 178 kts | 271° |
| 2026-04-27 16:14 | 18.21314 | -64.24845 | 8002 ft | 179 kts | 271° |
| 2026-04-27 16:15 | 18.21459 | -64.27449 | 8001 ft | 179 kts | 271° |
| 2026-04-27 16:15 | 18.21605 | -64.30063 | 8001 ft | 179 kts | 271° |
| 2026-04-27 16:16 | 18.21750 | -64.32674 | 8005 ft | 178 kts | 271° |
| 2026-04-27 16:16 | 18.21895 | -64.35277 | 8007 ft | 178 kts | 271° |
| 2026-04-27 16:17 | 18.22039 | -64.37882 | 8008 ft | 178 kts | 271° |
| 2026-04-27 16:17 | 18.22181 | -64.40469 | 8008 ft | 178 kts | 271° |
| 2026-04-27 16:18 | 18.22325 | -64.43069 | 8012 ft | 178 kts | 271° |
| 2026-04-27 16:18 | 18.22468 | -64.45668 | 8012 ft | 178 kts | 271° |
| 2026-04-27 16:19 | 18.22538 | -64.46969 | 8009 ft | 178 kts | 271° |
| 2026-04-27 16:19 | 18.22610 | -64.48270 | 8010 ft | 178 kts | 271° |
| 2026-04-27 16:20 | 18.22823 | -64.52156 | 8012 ft | 178 kts | 271° |
| 2026-04-27 16:20 | 18.22894 | -64.53456 | 8010 ft | 178 kts | 271° |
| 2026-04-27 16:20 | 18.23035 | -64.56057 | 8010 ft | 178 kts | 271° |
| 2026-04-27 16:21 | 18.23105 | -64.57360 | 8010 ft | 178 kts | 271° |
| 2026-04-27 16:21 | 18.23316 | -64.61244 | 8007 ft | 178 kts | 271° |
| 2026-04-27 16:22 | 18.23386 | -64.62543 | 8009 ft | 178 kts | 271° |
| 2026-04-27 16:22 | 18.23526 | -64.65137 | 8009 ft | 177 kts | 271° |
| 2026-04-27 16:22 | 18.23596 | -64.66436 | 8001 ft | 178 kts | 271° |
| 2026-04-27 16:23 | 18.23668 | -64.67771 | 7808 ft | 187 kts | 271° |
| 2026-04-27 16:23 | 18.23817 | -64.70549 | 7431 ft | 193 kts | 271° |
| 2026-04-27 16:23 | 18.23892 | -64.71968 | 7244 ft | 195 kts | 271° |
| 2026-04-27 16:24 | 18.23967 | -64.73388 | 7055 ft | 194 kts | 271° |
| 2026-04-27 16:24 | 18.24117 | -64.76176 | 6689 ft | 191 kts | 271° |
| 2026-04-27 16:25 | 18.24266 | -64.78969 | 6313 ft | 191 kts | 271° |
| 2026-04-27 16:25 | 18.24414 | -64.81752 | 5916 ft | 190 kts | 271° |
| 2026-04-27 16:26 | 18.24560 | -64.84518 | 5531 ft | 189 kts | 271° |
| 2026-04-27 16:26 | 18.24704 | -64.87254 | 5152 ft | 188 kts | 271° |
| 2026-04-27 16:27 | 18.24849 | -64.90000 | 4767 ft | 188 kts | 271° |
| 2026-04-27 16:27 | 18.25062 | -64.94061 | 4176 ft | 184 kts | 271° |
| 2026-04-27 16:28 | 18.25202 | -64.96740 | 3794 ft | 185 kts | 271° |
| 2026-04-27 16:28 | 18.25344 | -64.99440 | 3414 ft | 184 kts | 271° |
| 2026-04-27 16:29 | 18.25550 | -65.03424 | 2823 ft | 178 kts | 271° |
| 2026-04-27 16:30 | 18.25680 | -65.05928 | 2677 ft | 172 kts | 271° |
| 2026-04-27 16:30 | 18.26548 | -65.08264 | 2290 ft | 176 kts | 304° |
| 2026-04-27 16:31 | 18.28539 | -65.11357 | 2110 ft | 165 kts | 303° |
| 2026-04-27 16:31 | 18.30402 | -65.12590 | 2111 ft | 163 kts | 355° |
| 2026-04-27 16:32 | 18.32437 | -65.11839 | 2107 ft | 154 kts | 47° |
| 2026-04-27 16:32 | 18.33002 | -65.10940 | 2105 ft | 143 kts | 71° |
| 2026-04-27 16:33 | 18.33142 | -65.08949 | 2004 ft | 139 kts | 90° |
| 2026-04-27 16:33 | 18.33189 | -65.07937 | 1836 ft | 137 kts | 89° |
| 2026-04-27 16:33 | 18.33242 | -65.06968 | 1652 ft | 130 kts | 90° |
| 2026-04-27 16:33 | 18.33290 | -65.06039 | 1485 ft | 125 kts | 89° |
| 2026-04-27 16:34 | 18.33334 | -65.05145 | 1327 ft | 121 kts | 90° |
| 2026-04-27 16:34 | 18.33377 | -65.04264 | 1170 ft | 119 kts | 90° |
| 2026-04-27 16:34 | 18.33421 | -65.03392 | 1017 ft | 120 kts | 90° |
| 2026-04-27 16:34 | 18.33467 | -65.02527 | 883 ft | 118 kts | 89° |
| 2026-04-27 16:35 | 18.33535 | -65.01686 | 735 ft | 116 kts | 86° |
| 2026-04-27 16:35 | 18.33610 | -65.00836 | 608 ft | 117 kts | 90° |
| 2026-04-27 16:35 | 18.33658 | -64.99287 | 212 ft | 88 kts | 90° |
| 2026-04-27 16:36 | 18.33683 | -64.98704 | 124 ft | 75 kts | 90° |
| 2026-04-27 16:36 | 18.33695 | -64.98177 | 30 ft | 70 kts | 90° |
| 2026-04-27 16:36 | 18.33700 | -64.97953 | 29 ft | 63 kts | 102° |